sensor_id;sensor_type;location;lat;lon;timestamp;pressure;altitude;pressure_sealevel;temperature;humidity
47742;BME280;33504;52.066;6.096;2022-09-30T00:01:42;100731.16;;;9.25;45.39
47742;BME280;33504;52.066;6.096;2022-09-30T00:04:13;100730.35;;;9.22;45.26
47742;BME280;33504;52.066;6.096;2022-09-30T00:06:41;100728.78;;;8.90;45.30
47742;BME280;33504;52.066;6.096;2022-09-30T00:09:08;100725.03;;;8.87;45.25
47742;BME280;33504;52.066;6.096;2022-09-30T00:11:36;100727.88;;;8.84;45.28
47742;BME280;33504;52.066;6.096;2022-09-30T00:14:03;100725.04;;;9.09;45.22
47742;BME280;33504;52.066;6.096;2022-09-30T00:16:33;100724.07;;;9.07;45.14
47742;BME280;33504;52.066;6.096;2022-09-30T00:19:00;100721.36;;;8.77;45.32
47742;BME280;33504;52.066;6.096;2022-09-30T00:21:28;100723.04;;;9.01;45.24
47742;BME280;33504;52.066;6.096;2022-09-30T00:23:55;100724.17;;;9.02;45.42
47742;BME280;33504;52.066;6.096;2022-09-30T00:26:23;100728.54;;;8.73;45.31
47742;BME280;33504;52.066;6.096;2022-09-30T00:28:52;100731.29;;;8.70;45.38
47742;BME280;33504;52.066;6.096;2022-09-30T00:31:20;100729.99;;;8.96;45.30
47742;BME280;33504;52.066;6.096;2022-09-30T00:33:49;100730.79;;;8.88;45.40
47742;BME280;33504;52.066;6.096;2022-09-30T00:36:16;100731.27;;;8.84;45.33
47742;BME280;33504;52.066;6.096;2022-09-30T00:38:43;100725.31;;;8.84;45.23
47742;BME280;33504;52.066;6.096;2022-09-30T00:41:10;100724.83;;;9.28;45.24
47742;BME280;33504;52.066;6.096;2022-09-30T00:43:40;100728.49;;;8.77;45.37
47742;BME280;33504;52.066;6.096;2022-09-30T00:46:16;100730.49;;;8.75;45.45
47742;BME280;33504;52.066;6.096;2022-09-30T00:48:48;100731.33;;;8.72;45.28
47742;BME280;33504;52.066;6.096;2022-09-30T00:51:17;100728.90;;;8.68;45.30
47742;BME280;33504;52.066;6.096;2022-09-30T00:53:51;100726.80;;;8.62;45.35
47742;BME280;33504;52.066;6.096;2022-09-30T00:56:23;100729.50;;;8.60;45.39
47742;BME280;33504;52.066;6.096;2022-09-30T00:58:55;100730.61;;;8.62;45.29
47742;BME280;33504;52.066;6.096;2022-09-30T01:01:26;100729.38;;;8.55;45.32
47742;BME280;33504;52.066;6.096;2022-09-30T01:03:57;100730.55;;;8.54;45.35
47742;BME280;33504;52.066;6.096;2022-09-30T01:06:26;100732.04;;;8.49;45.29
47742;BME280;33504;52.066;6.096;2022-09-30T01:08:53;100734.91;;;8.47;45.36
47742;BME280;33504;52.066;6.096;2022-09-30T01:11:20;100735.14;;;8.66;45.33
47742;BME280;33504;52.066;6.096;2022-09-30T01:13:51;100731.94;;;8.42;45.35
47742;BME280;33504;52.066;6.096;2022-09-30T01:16:33;100728.53;;;8.39;45.53
47742;BME280;33504;52.066;6.096;2022-09-30T01:19:19;100730.07;;;8.62;45.54
47742;BME280;33504;52.066;6.096;2022-09-30T01:22:02;100731.77;;;8.56;45.56
47742;BME280;33504;52.066;6.096;2022-09-30T01:24:39;100737.32;;;8.82;45.45
47742;BME280;33504;52.066;6.096;2022-09-30T01:28:12;100739.40;;;9.20;45.35
47742;BME280;33504;52.066;6.096;2022-09-30T01:30:59;100738.79;;;8.19;45.41
47742;BME280;33504;52.066;6.096;2022-09-30T01:33:37;100735.97;;;8.19;45.48
47742;BME280;33504;52.066;6.096;2022-09-30T01:36:27;100736.93;;;8.66;45.55
47742;BME280;33504;52.066;6.096;2022-09-30T01:39:06;100737.76;;;8.14;45.52
47742;BME280;33504;52.066;6.096;2022-09-30T01:41:44;100739.03;;;8.32;45.51
47742;BME280;33504;52.066;6.096;2022-09-30T01:44:22;100742.48;;;8.29;45.45
47742;BME280;33504;52.066;6.096;2022-09-30T01:46:58;100744.90;;;8.26;45.45
47742;BME280;33504;52.066;6.096;2022-09-30T01:49:32;100741.23;;;8.47;45.55
47742;BME280;33504;52.066;6.096;2022-09-30T01:52:05;100739.40;;;8.20;45.53
47742;BME280;33504;52.066;6.096;2022-09-30T01:54:38;100737.99;;;7.96;45.52
47742;BME280;33504;52.066;6.096;2022-09-30T01:57:13;100738.52;;;8.43;45.57
47742;BME280;33504;52.066;6.096;2022-09-30T01:59:46;100738.20;;;8.43;45.63
47742;BME280;33504;52.066;6.096;2022-09-30T02:02:19;100737.74;;;8.42;45.62
47742;BME280;33504;52.066;6.096;2022-09-30T02:04:52;100740.33;;;7.88;45.58
47742;BME280;33504;52.066;6.096;2022-09-30T02:07:24;100743.74;;;7.82;45.59
47742;BME280;33504;52.066;6.096;2022-09-30T02:09:57;100740.80;;;8.28;45.68
47742;BME280;33504;52.066;6.096;2022-09-30T02:12:31;100741.99;;;8.03;45.66
47742;BME280;33504;52.066;6.096;2022-09-30T02:15:07;100742.88;;;8.31;45.59
47742;BME280;33504;52.066;6.096;2022-09-30T02:17:38;100746.56;;;8.28;45.53
47742;BME280;33504;52.066;6.096;2022-09-30T02:20:09;100745.05;;;8.29;45.37
47742;BME280;33504;52.066;6.096;2022-09-30T02:22:41;100743.81;;;8.02;45.50
47742;BME280;33504;52.066;6.096;2022-09-30T02:25:13;100741.56;;;8.03;45.32
47742;BME280;33504;52.066;6.096;2022-09-30T02:27:46;100743.53;;;8.26;45.29
47742;BME280;33504;52.066;6.096;2022-09-30T02:30:17;100746.22;;;7.98;45.26
47742;BME280;33504;52.066;6.096;2022-09-30T02:32:47;100753.66;;;7.96;45.30
47742;BME280;33504;52.066;6.096;2022-09-30T02:35:21;100756.54;;;8.18;45.36
47742;BME280;33504;52.066;6.096;2022-09-30T02:37:53;100758.79;;;8.11;45.36
47742;BME280;33504;52.066;6.096;2022-09-30T02:40:27;100760.69;;;8.06;45.56
47742;BME280;33504;52.066;6.096;2022-09-30T02:42:57;100759.38;;;8.02;45.57
47742;BME280;33504;52.066;6.096;2022-09-30T02:45:24;100752.59;;;7.98;45.57
47742;BME280;33504;52.066;6.096;2022-09-30T02:48:02;100753.71;;;7.95;45.62
47742;BME280;33504;52.066;6.096;2022-09-30T02:50:35;100753.21;;;7.89;45.55
47742;BME280;33504;52.066;6.096;2022-09-30T02:53:15;100757.79;;;7.85;45.65
47742;BME280;33504;52.066;6.096;2022-09-30T02:55:55;100753.78;;;7.81;45.68
47742;BME280;33504;52.066;6.096;2022-09-30T02:58:26;100753.92;;;7.84;45.69
47742;BME280;33504;52.066;6.096;2022-09-30T03:00:53;100756.75;;;7.84;45.67
47742;BME280;33504;52.066;6.096;2022-09-30T03:03:22;100758.83;;;7.79;45.72
47742;BME280;33504;52.066;6.096;2022-09-30T03:05:51;100754.99;;;7.80;45.70
47742;BME280;33504;52.066;6.096;2022-09-30T03:08:18;100752.29;;;7.75;45.65
47742;BME280;33504;52.066;6.096;2022-09-30T03:10:47;100751.83;;;7.71;45.58
47742;BME280;33504;52.066;6.096;2022-09-30T03:13:27;100751.22;;;7.67;45.63
47742;BME280;33504;52.066;6.096;2022-09-30T03:16:11;100754.66;;;7.63;45.81
47742;BME280;33504;52.066;6.096;2022-09-30T03:18:52;100758.64;;;7.60;45.85
47742;BME280;33504;52.066;6.096;2022-09-30T03:21:35;100765.14;;;7.79;45.70
47742;BME280;33504;52.066;6.096;2022-09-30T03:24:21;100767.64;;;7.74;45.70
47742;BME280;33504;52.066;6.096;2022-09-30T03:27:02;100767.87;;;7.48;45.74
47742;BME280;33504;52.066;6.096;2022-09-30T03:29:42;100768.78;;;7.67;45.64
47742;BME280;33504;52.066;6.096;2022-09-30T03:32:21;100769.51;;;7.42;45.64
47742;BME280;33504;52.066;6.096;2022-09-30T03:35:02;100772.62;;;7.39;45.85
47742;BME280;33504;52.066;6.096;2022-09-30T03:37:36;100778.60;;;7.37;45.55
47742;BME280;33504;52.066;6.096;2022-09-30T03:40:13;100789.16;;;7.32;45.60
47742;BME280;33504;52.066;6.096;2022-09-30T03:42:45;100795.62;;;7.30;45.58
47742;BME280;33504;52.066;6.096;2022-09-30T03:45:19;100798.76;;;7.26;45.65
47742;BME280;33504;52.066;6.096;2022-09-30T03:47:52;100801.79;;;7.47;45.64
47742;BME280;33504;52.066;6.096;2022-09-30T03:50:22;100808.52;;;7.67;45.67
47742;BME280;33504;52.066;6.096;2022-09-30T03:52:50;100807.05;;;7.44;45.64
47742;BME280;33504;52.066;6.096;2022-09-30T03:55:18;100803.82;;;7.41;45.64
47742;BME280;33504;52.066;6.096;2022-09-30T03:57:45;100794.16;;;7.21;45.75
47742;BME280;33504;52.066;6.096;2022-09-30T04:00:13;100791.25;;;7.43;45.71
47742;BME280;33504;52.066;6.096;2022-09-30T04:02:41;100790.30;;;7.17;45.83
47742;BME280;33504;52.066;6.096;2022-09-30T04:05:08;100792.14;;;7.15;45.81
47742;BME280;33504;52.066;6.096;2022-09-30T04:07:35;100790.34;;;7.34;45.91
47742;BME280;33504;52.066;6.096;2022-09-30T04:10:02;100794.20;;;7.55;45.82
47742;BME280;33504;52.066;6.096;2022-09-30T04:12:30;100796.40;;;7.11;45.44
47742;BME280;33504;52.066;6.096;2022-09-30T04:14:57;100804.13;;;7.29;45.32
47742;BME280;33504;52.066;6.096;2022-09-30T04:17:24;100813.58;;;7.25;45.13
47742;BME280;33504;52.066;6.096;2022-09-30T04:19:50;100819.45;;;6.98;45.34
47742;BME280;33504;52.066;6.096;2022-09-30T04:22:17;100822.48;;;6.95;45.63
47742;BME280;33504;52.066;6.096;2022-09-30T04:24:44;100820.17;;;6.94;45.52
47742;BME280;33504;52.066;6.096;2022-09-30T04:27:11;100826.28;;;6.90;45.59
47742;BME280;33504;52.066;6.096;2022-09-30T04:29:38;100823.82;;;6.94;45.48
47742;BME280;33504;52.066;6.096;2022-09-30T04:32:05;100825.94;;;7.16;45.44
47742;BME280;33504;52.066;6.096;2022-09-30T04:34:32;100832.02;;;7.36;45.54
47742;BME280;33504;52.066;6.096;2022-09-30T04:36:59;100839.30;;;7.14;45.56
47742;BME280;33504;52.066;6.096;2022-09-30T04:39:26;100840.80;;;7.14;45.47
47742;BME280;33504;52.066;6.096;2022-09-30T04:41:53;100840.02;;;7.10;45.47
47742;BME280;33504;52.066;6.096;2022-09-30T04:44:20;100841.06;;;7.31;45.48
47742;BME280;33504;52.066;6.096;2022-09-30T04:46:47;100841.07;;;7.07;45.59
47742;BME280;33504;52.066;6.096;2022-09-30T04:49:14;100838.81;;;6.85;45.60
47742;BME280;33504;52.066;6.096;2022-09-30T04:51:41;100837.18;;;7.29;45.63
47742;BME280;33504;52.066;6.096;2022-09-30T04:54:08;100836.06;;;7.05;45.63
47742;BME280;33504;52.066;6.096;2022-09-30T04:56:34;100841.10;;;7.03;45.59
47742;BME280;33504;52.066;6.096;2022-09-30T04:59:02;100845.93;;;7.22;45.61
47742;BME280;33504;52.066;6.096;2022-09-30T05:01:28;100845.44;;;6.98;45.68
47742;BME280;33504;52.066;6.096;2022-09-30T05:03:55;100845.05;;;7.18;45.87
47742;BME280;33504;52.066;6.096;2022-09-30T05:06:22;100849.91;;;7.13;45.99
47742;BME280;33504;52.066;6.096;2022-09-30T05:08:49;100856.65;;;6.92;46.05
47742;BME280;33504;52.066;6.096;2022-09-30T05:11:18;100858.99;;;6.90;45.99
47742;BME280;33504;52.066;6.096;2022-09-30T05:13:46;100858.24;;;7.09;46.06
47742;BME280;33504;52.066;6.096;2022-09-30T05:16:14;100859.37;;;6.88;46.04
47742;BME280;33504;52.066;6.096;2022-09-30T05:18:43;100859.64;;;7.06;46.11
47742;BME280;33504;52.066;6.096;2022-09-30T05:21:10;100854.80;;;6.85;45.93
47742;BME280;33504;52.066;6.096;2022-09-30T05:23:38;100853.93;;;7.07;45.73
47742;BME280;33504;52.066;6.096;2022-09-30T05:26:05;100854.09;;;7.05;45.83
47742;BME280;33504;52.066;6.096;2022-09-30T05:28:32;100855.33;;;7.04;46.04
47742;BME280;33504;52.066;6.096;2022-09-30T05:31:01;100859.10;;;7.05;46.12
47742;BME280;33504;52.066;6.096;2022-09-30T05:33:29;100862.21;;;7.05;46.42
47742;BME280;33504;52.066;6.096;2022-09-30T05:36:00;100864.88;;;6.87;46.31
47742;BME280;33504;52.066;6.096;2022-09-30T05:38:28;100869.02;;;6.87;46.34
47742;BME280;33504;52.066;6.096;2022-09-30T05:40:55;100868.89;;;6.87;46.43
47742;BME280;33504;52.066;6.096;2022-09-30T05:43:22;100869.34;;;6.89;46.44
47742;BME280;33504;52.066;6.096;2022-09-30T05:45:52;100875.53;;;7.14;46.41
47742;BME280;33504;52.066;6.096;2022-09-30T05:48:19;100876.42;;;6.91;46.46
47742;BME280;33504;52.066;6.096;2022-09-30T05:50:47;100880.80;;;7.17;46.48
47742;BME280;33504;52.066;6.096;2022-09-30T05:53:14;100882.73;;;6.96;46.53
47742;BME280;33504;52.066;6.096;2022-09-30T05:55:44;100886.44;;;7.17;46.55
47742;BME280;33504;52.066;6.096;2022-09-30T05:58:11;100889.07;;;6.97;46.57
47742;BME280;33504;52.066;6.096;2022-09-30T06:00:39;100893.01;;;6.76;46.41
47742;BME280;33504;52.066;6.096;2022-09-30T06:03:06;100899.33;;;7.00;46.33
47742;BME280;33504;52.066;6.096;2022-09-30T06:05:32;100901.37;;;7.01;46.27
47742;BME280;33504;52.066;6.096;2022-09-30T06:08:00;100898.15;;;7.03;46.36
47742;BME280;33504;52.066;6.096;2022-09-30T06:10:26;100898.36;;;7.06;46.23
47742;BME280;33504;52.066;6.096;2022-09-30T06:12:53;100900.07;;;7.08;46.22
47742;BME280;33504;52.066;6.096;2022-09-30T06:15:20;100903.57;;;7.34;46.45
47742;BME280;33504;52.066;6.096;2022-09-30T06:17:51;100905.02;;;7.17;46.53
47742;BME280;33504;52.066;6.096;2022-09-30T06:20:19;100907.58;;;7.20;46.67
47742;BME280;33504;52.066;6.096;2022-09-30T06:22:46;100908.35;;;7.24;46.63
47742;BME280;33504;52.066;6.096;2022-09-30T06:25:13;100908.64;;;7.30;46.64
47742;BME280;33504;52.066;6.096;2022-09-30T06:27:44;100911.47;;;7.59;46.73
47742;BME280;33504;52.066;6.096;2022-09-30T06:30:11;100911.20;;;7.39;46.84
47742;BME280;33504;52.066;6.096;2022-09-30T06:32:38;100914.88;;;7.46;46.84
47742;BME280;33504;52.066;6.096;2022-09-30T06:35:05;100920.51;;;7.27;46.93
47742;BME280;33504;52.066;6.096;2022-09-30T06:37:33;100924.87;;;7.34;46.82
47742;BME280;33504;52.066;6.096;2022-09-30T06:40:01;100926.60;;;7.41;46.98
47742;BME280;33504;52.066;6.096;2022-09-30T06:42:29;100929.05;;;7.69;47.06
47742;BME280;33504;52.066;6.096;2022-09-30T06:44:56;100931.28;;;7.78;47.14
47742;BME280;33504;52.066;6.096;2022-09-30T06:47:23;100929.53;;;7.63;47.17
47742;BME280;33504;52.066;6.096;2022-09-30T06:49:50;100930.68;;;7.70;47.25
47742;BME280;33504;52.066;6.096;2022-09-30T06:52:17;100933.89;;;7.82;47.20
47742;BME280;33504;52.066;6.096;2022-09-30T06:54:44;100933.88;;;7.90;47.10
47742;BME280;33504;52.066;6.096;2022-09-30T06:57:11;100927.19;;;7.97;46.89
47742;BME280;33504;52.066;6.096;2022-09-30T06:59:38;100927.71;;;8.11;46.74
47742;BME280;33504;52.066;6.096;2022-09-30T07:02:05;100932.00;;;8.27;46.59
47742;BME280;33504;52.066;6.096;2022-09-30T07:04:32;100927.30;;;7.93;46.43
47742;BME280;33504;52.066;6.096;2022-09-30T07:06:59;100923.04;;;8.08;46.57
47742;BME280;33504;52.066;6.096;2022-09-30T07:09:26;100923.67;;;8.73;47.13
47742;BME280;33504;52.066;6.096;2022-09-30T07:11:54;100920.67;;;8.46;47.53
47742;BME280;33504;52.066;6.096;2022-09-30T07:14:20;100919.77;;;8.61;48.42
47742;BME280;33504;52.066;6.096;2022-09-30T07:16:47;100921.64;;;8.92;48.19
47742;BME280;33504;52.066;6.096;2022-09-30T07:19:15;100923.42;;;8.88;48.01
47742;BME280;33504;52.066;6.096;2022-09-30T07:21:42;100920.81;;;8.85;48.28
47742;BME280;33504;52.066;6.096;2022-09-30T07:24:09;100924.36;;;9.39;48.22
47742;BME280;33504;52.066;6.096;2022-09-30T07:26:36;100924.17;;;9.49;50.87
47742;BME280;33504;52.066;6.096;2022-09-30T07:29:03;100922.44;;;9.66;50.39
47742;BME280;33504;52.066;6.096;2022-09-30T07:31:30;100925.40;;;10.45;50.71
47742;BME280;33504;52.066;6.096;2022-09-30T07:33:57;100929.63;;;10.17;51.27
47742;BME280;33504;52.066;6.096;2022-09-30T07:36:25;100928.81;;;10.78;50.77
47742;BME280;33504;52.066;6.096;2022-09-30T07:38:52;100924.33;;;11.30;49.84
47742;BME280;33504;52.066;6.096;2022-09-30T07:41:22;100926.11;;;12.13;48.76
47742;BME280;33504;52.066;6.096;2022-09-30T07:43:49;100923.74;;;12.81;46.90
47742;BME280;33504;52.066;6.096;2022-09-30T07:46:19;100924.82;;;13.24;45.70
47742;BME280;33504;52.066;6.096;2022-09-30T07:48:47;100923.98;;;13.60;44.56
47742;BME280;33504;52.066;6.096;2022-09-30T07:51:17;100926.15;;;14.12;44.05
47742;BME280;33504;52.066;6.096;2022-09-30T07:53:46;100929.07;;;13.97;43.64
47742;BME280;33504;52.066;6.096;2022-09-30T07:56:14;100927.41;;;14.52;42.96
47742;BME280;33504;52.066;6.096;2022-09-30T07:58:42;100924.69;;;14.36;42.73
47742;BME280;33504;52.066;6.096;2022-09-30T08:01:10;100925.97;;;14.46;42.44
47742;BME280;33504;52.066;6.096;2022-09-30T08:03:39;100925.26;;;15.20;42.00
47742;BME280;33504;52.066;6.096;2022-09-30T08:06:08;100924.76;;;14.96;42.62
47742;BME280;33504;52.066;6.096;2022-09-30T08:08:36;100926.86;;;14.95;41.96
47742;BME280;33504;52.066;6.096;2022-09-30T08:11:04;100925.59;;;14.86;42.10
47742;BME280;33504;52.066;6.096;2022-09-30T08:13:31;100924.93;;;15.46;41.55
47742;BME280;33504;52.066;6.096;2022-09-30T08:15:59;100925.75;;;15.90;40.88
47742;BME280;33504;52.066;6.096;2022-09-30T08:18:26;100927.69;;;15.86;40.77
47742;BME280;33504;52.066;6.096;2022-09-30T08:20:54;100924.41;;;16.19;40.51
47742;BME280;33504;52.066;6.096;2022-09-30T08:23:21;100922.75;;;16.62;39.58
47742;BME280;33504;52.066;6.096;2022-09-30T08:25:48;100922.61;;;17.13;39.25
47742;BME280;33504;52.066;6.096;2022-09-30T08:28:15;100924.35;;;17.18;38.62
47742;BME280;33504;52.066;6.096;2022-09-30T08:30:43;100923.84;;;17.25;38.59
47742;BME280;33504;52.066;6.096;2022-09-30T08:33:10;100924.81;;;17.08;37.49
47742;BME280;33504;52.066;6.096;2022-09-30T08:35:37;100922.81;;;17.06;38.07
47742;BME280;33504;52.066;6.096;2022-09-30T08:38:04;100925.43;;;17.14;37.51
47742;BME280;33504;52.066;6.096;2022-09-30T08:40:33;100926.07;;;17.17;38.11
47742;BME280;33504;52.066;6.096;2022-09-30T08:43:14;100929.54;;;16.94;37.55
47742;BME280;33504;52.066;6.096;2022-09-30T08:45:53;100928.48;;;17.33;37.51
47742;BME280;33504;52.066;6.096;2022-09-30T08:48:38;100929.13;;;17.33;37.53
47742;BME280;33504;52.066;6.096;2022-09-30T08:51:20;100933.69;;;17.81;37.11
47742;BME280;33504;52.066;6.096;2022-09-30T08:53:52;100935.81;;;18.29;36.13
47742;BME280;33504;52.066;6.096;2022-09-30T08:56:23;100938.26;;;17.91;36.49
47742;BME280;33504;52.066;6.096;2022-09-30T08:58:55;100941.94;;;18.30;36.98
47742;BME280;33504;52.066;6.096;2022-09-30T09:01:29;100941.20;;;18.60;36.23
47742;BME280;33504;52.066;6.096;2022-09-30T09:03:58;100940.58;;;18.63;35.73
47742;BME280;33504;52.066;6.096;2022-09-30T09:06:31;100941.71;;;18.91;35.47
47742;BME280;33504;52.066;6.096;2022-09-30T09:09:19;100941.07;;;19.43;34.64
47742;BME280;33504;52.066;6.096;2022-09-30T09:12:00;100939.43;;;19.63;34.52
47742;BME280;33504;52.066;6.096;2022-09-30T09:14:38;100935.89;;;19.34;34.30
47742;BME280;33504;52.066;6.096;2022-09-30T09:17:19;100936.35;;;19.62;34.29
47742;BME280;33504;52.066;6.096;2022-09-30T09:19:56;100935.46;;;19.61;34.32
47742;BME280;33504;52.066;6.096;2022-09-30T09:22:28;100928.84;;;19.84;34.06
47742;BME280;33504;52.066;6.096;2022-09-30T09:24:57;100930.92;;;20.35;33.01
47742;BME280;33504;52.066;6.096;2022-09-30T09:27:27;100932.53;;;20.58;32.79
47742;BME280;33504;52.066;6.096;2022-09-30T09:30:10;100931.29;;;20.77;32.12
47742;BME280;33504;52.066;6.096;2022-09-30T09:32:38;100926.04;;;20.65;31.59
47742;BME280;33504;52.066;6.096;2022-09-30T09:35:13;100922.67;;;20.55;32.59
47742;BME280;33504;52.066;6.096;2022-09-30T09:37:46;100923.92;;;20.62;31.79
47742;BME280;33504;52.066;6.096;2022-09-30T09:40:25;100927.13;;;20.37;32.15
47742;BME280;33504;52.066;6.096;2022-09-30T09:43:03;100923.71;;;20.48;32.15
47742;BME280;33504;52.066;6.096;2022-09-30T09:45:37;100928.47;;;21.07;31.84
47742;BME280;33504;52.066;6.096;2022-09-30T09:48:08;100925.45;;;21.03;31.09
47742;BME280;33504;52.066;6.096;2022-09-30T09:50:41;100926.98;;;21.71;30.54
47742;BME280;33504;52.066;6.096;2022-09-30T09:53:47;100931.32;;;22.39;30.17
47742;BME280;33504;52.066;6.096;2022-09-30T09:56:16;100942.02;;;21.72;30.43
47742;BME280;33504;52.066;6.096;2022-09-30T09:59:06;100946.55;;;22.04;29.01
47742;BME280;33504;52.066;6.096;2022-09-30T10:01:34;100942.22;;;22.11;29.03
47742;BME280;33504;52.066;6.096;2022-09-30T10:04:13;100933.23;;;22.40;28.49
47742;BME280;33504;52.066;6.096;2022-09-30T10:06:45;100934.07;;;22.52;29.04
47742;BME280;33504;52.066;6.096;2022-09-30T10:09:33;100937.66;;;22.37;29.51
47742;BME280;33504;52.066;6.096;2022-09-30T10:12:38;100936.46;;;23.54;28.70
47742;BME280;33504;52.066;6.096;2022-09-30T10:15:19;100935.68;;;22.22;29.31
47742;BME280;33504;52.066;6.096;2022-09-30T10:17:52;100937.81;;;22.73;29.18
47742;BME280;33504;52.066;6.096;2022-09-30T10:20:27;100930.62;;;23.27;28.55
47742;BME280;33504;52.066;6.096;2022-09-30T10:23:09;100930.25;;;22.91;28.18
47742;BME280;33504;52.066;6.096;2022-09-30T10:25:36;100919.15;;;23.61;28.22
47742;BME280;33504;52.066;6.096;2022-09-30T10:28:23;100920.67;;;23.67;26.96
47742;BME280;33504;52.066;6.096;2022-09-30T10:30:53;100925.17;;;23.49;27.63
47742;BME280;33504;52.066;6.096;2022-09-30T10:33:25;100928.59;;;23.32;27.44
47742;BME280;33504;52.066;6.096;2022-09-30T10:36:00;100922.87;;;23.24;26.93
47742;BME280;33504;52.066;6.096;2022-09-30T10:38:29;100917.31;;;23.14;26.85
47742;BME280;33504;52.066;6.096;2022-09-30T10:40:58;100909.11;;;23.86;26.18
47742;BME280;33504;52.066;6.096;2022-09-30T10:43:28;100914.75;;;24.13;26.29
47742;BME280;33504;52.066;6.096;2022-09-30T10:45:57;100917.43;;;23.11;26.37
47742;BME280;33504;52.066;6.096;2022-09-30T10:48:26;100919.69;;;22.90;26.22
47742;BME280;33504;52.066;6.096;2022-09-30T10:50:55;100915.07;;;23.67;26.04
47742;BME280;33504;52.066;6.096;2022-09-30T10:53:24;100907.95;;;22.87;26.23
47742;BME280;33504;52.066;6.096;2022-09-30T10:55:52;100914.39;;;23.78;25.55
47742;BME280;33504;52.066;6.096;2022-09-30T10:58:24;100911.23;;;23.42;26.67
47742;BME280;33504;52.066;6.096;2022-09-30T11:00:58;100914.84;;;24.03;25.76
47742;BME280;33504;52.066;6.096;2022-09-30T11:03:35;100919.51;;;23.59;26.24
47742;BME280;33504;52.066;6.096;2022-09-30T11:06:06;100913.42;;;23.01;26.65
47742;BME280;33504;52.066;6.096;2022-09-30T11:08:42;100911.87;;;23.13;26.60
47742;BME280;33504;52.066;6.096;2022-09-30T11:11:17;100921.54;;;23.02;26.61
47742;BME280;33504;52.066;6.096;2022-09-30T11:13:51;100911.40;;;23.53;25.71
47742;BME280;33504;52.066;6.096;2022-09-30T11:16:25;100907.44;;;23.09;26.24
47742;BME280;33504;52.066;6.096;2022-09-30T11:19:00;100905.34;;;23.90;25.95
47742;BME280;33504;52.066;6.096;2022-09-30T11:21:34;100905.49;;;24.02;26.04
47742;BME280;33504;52.066;6.096;2022-09-30T11:24:14;100895.57;;;24.18;25.82
47742;BME280;33504;52.066;6.096;2022-09-30T11:26:51;100905.58;;;23.84;26.10
47742;BME280;33504;52.066;6.096;2022-09-30T11:29:35;100903.73;;;23.34;26.32
47742;BME280;33504;52.066;6.096;2022-09-30T11:32:12;100898.26;;;23.07;26.69
47742;BME280;33504;52.066;6.096;2022-09-30T11:34:53;100895.59;;;22.90;26.80
47742;BME280;33504;52.066;6.096;2022-09-30T11:37:30;100897.25;;;23.32;26.20
47742;BME280;33504;52.066;6.096;2022-09-30T11:40:20;100891.19;;;23.52;26.12
47742;BME280;33504;52.066;6.096;2022-09-30T11:42:55;100895.00;;;22.51;27.51
47742;BME280;33504;52.066;6.096;2022-09-30T11:45:32;100894.89;;;22.19;28.47
47742;BME280;33504;52.066;6.096;2022-09-30T11:48:19;100891.22;;;22.07;27.90
47742;BME280;33504;52.066;6.096;2022-09-30T11:50:58;100890.74;;;21.55;28.80
47742;BME280;33504;52.066;6.096;2022-09-30T11:53:37;100890.09;;;20.97;29.30
47742;BME280;33504;52.066;6.096;2022-09-30T11:56:19;100882.05;;;20.98;29.59
47742;BME280;33504;52.066;6.096;2022-09-30T11:58:52;100890.09;;;21.17;29.39
47742;BME280;33504;52.066;6.096;2022-09-30T12:01:26;100881.20;;;20.63;29.88
47742;BME280;33504;52.066;6.096;2022-09-30T12:04:00;100882.28;;;20.03;29.84
47742;BME280;33504;52.066;6.096;2022-09-30T12:06:33;100875.16;;;19.91;30.59
47742;BME280;33504;52.066;6.096;2022-09-30T12:09:08;100873.28;;;19.55;30.65
47742;BME280;33504;52.066;6.096;2022-09-30T12:11:43;100873.20;;;19.36;31.38
47742;BME280;33504;52.066;6.096;2022-09-30T12:14:19;100873.89;;;18.89;32.20
47742;BME280;33504;52.066;6.096;2022-09-30T12:16:49;100877.23;;;19.89;31.69
47742;BME280;33504;52.066;6.096;2022-09-30T12:19:20;100866.85;;;19.12;31.41
47742;BME280;33504;52.066;6.096;2022-09-30T12:21:53;100867.97;;;19.81;31.09
47742;BME280;33504;52.066;6.096;2022-09-30T12:24:28;100858.92;;;20.21;30.67
47742;BME280;33504;52.066;6.096;2022-09-30T12:26:57;100866.25;;;19.79;31.00
47742;BME280;33504;52.066;6.096;2022-09-30T12:29:27;100869.27;;;19.36;31.32
47742;BME280;33504;52.066;6.096;2022-09-30T12:32:09;100868.14;;;19.55;31.15
47742;BME280;33504;52.066;6.096;2022-09-30T12:34:51;100863.80;;;19.50;31.37
47742;BME280;33504;52.066;6.096;2022-09-30T12:37:35;100862.27;;;19.71;32.01
47742;BME280;33504;52.066;6.096;2022-09-30T12:40:19;100855.99;;;19.55;31.83
47742;BME280;33504;52.066;6.096;2022-09-30T12:44:28;100858.68;;;20.44;31.79
47742;BME280;33504;52.066;6.096;2022-09-30T12:47:10;100856.81;;;18.95;31.96
47742;BME280;33504;52.066;6.096;2022-09-30T12:49:40;100854.52;;;19.26;31.82
47742;BME280;33504;52.066;6.096;2022-09-30T12:52:13;100848.64;;;19.02;32.16
47742;BME280;33504;52.066;6.096;2022-09-30T12:54:47;100847.81;;;19.41;31.91
47742;BME280;33504;52.066;6.096;2022-09-30T12:57:19;100856.01;;;20.19;31.96
47742;BME280;33504;52.066;6.096;2022-09-30T12:59:51;100845.51;;;19.99;31.12
47742;BME280;33504;52.066;6.096;2022-09-30T13:02:28;100841.85;;;20.11;30.71
47742;BME280;33504;52.066;6.096;2022-09-30T13:06:02;100840.94;;;21.15;30.18
47742;BME280;33504;52.066;6.096;2022-09-30T13:08:42;100844.81;;;20.84;30.03
47742;BME280;33504;52.066;6.096;2022-09-30T13:11:44;100837.91;;;21.49;30.30
47742;BME280;33504;52.066;6.096;2022-09-30T13:14:17;100837.22;;;20.87;30.13
47742;BME280;33504;52.066;6.096;2022-09-30T13:16:59;100831.85;;;22.15;29.27
47742;BME280;33504;52.066;6.096;2022-09-30T13:19:31;100830.44;;;22.20;29.07
47742;BME280;33504;52.066;6.096;2022-09-30T13:22:41;100829.95;;;21.38;29.57
47742;BME280;33504;52.066;6.096;2022-09-30T13:25:12;100824.47;;;22.55;28.75